»·PEaware :: N30CM KGEG-KOLM

N30CM :: KGEG-KOLM

FLIGHT INFORMATION

Flight Status: Arrived
Operator: Privately registered:
United States
More flights under this callsign
Pilot: Tim A. (5004)
Aircraft: BEECH AIRCRAFT SUPER KING AIR COMMUTER
(BE20)
More flights by this aircraft type
Origin: KGEG Spokane Intl
United States
Destination: KOLM Olympia
United States
More flights between these airports :: More routes between these airports
Route: +GEG3 GEG J136 YKM OLM
File this flight plan on PilotEdge
Remarks:
Altitude:
(Current/Filed)
26,000ft
Speed:
(Current/Filed)
270kts
Departed: 13-Apr-18 04:45 PM
Arrived: 13-Apr-18 06:03 PM
Distance/Time
Traveled:
222nm/1:17
Distance/Time
To Go:
Arrived

Flight Plot

Page will automatically refresh every two minutes.

Flight plan parsing failed; only flown route is shown


Map Options




Map Legend


Flown Route
Filed Route
Departure Airport
Arrival Airport
Navaid (VOR, NDB)
Fix

Horizontal Profiles

Position Reports

Time Latitude Longitude Heading Altitude Ground
Speed
13-Apr-18 15:51 47.621784 -117.524136 269 2356ft 0kts
13-Apr-18 15:52 47.621784 -117.524136 269 2356ft 0kts
13-Apr-18 15:56 47.621784 -117.524136 269 2356ft 0kts
13-Apr-18 15:57 47.621784 -117.524136 269 2356ft 0kts
13-Apr-18 15:58 47.621784 -117.524136 269 2356ft 0kts
13-Apr-18 15:59 47.621784 -117.524136 269 2356ft 0kts
13-Apr-18 16:00 47.621784 -117.524136 269 2356ft 0kts
13-Apr-18 16:01 47.621784 -117.524136 269 2356ft 0kts
13-Apr-18 16:03 47.621784 -117.524136 269 2356ft 0kts
13-Apr-18 16:04 47.621784 -117.524136 269 2356ft 0kts
13-Apr-18 16:05 47.621784 -117.524136 269 2356ft 0kts
13-Apr-18 16:06 47.621784 -117.524136 269 2356ft 0kts
13-Apr-18 16:07 47.621784 -117.524136 269 2356ft 0kts
13-Apr-18 16:08 47.621784 -117.524135 269 2356ft 0kts
13-Apr-18 16:10 47.621784 -117.524135 269 2356ft 0kts
13-Apr-18 16:18 47.621784 -117.524136 269 2356ft 0kts
13-Apr-18 16:19 47.621784 -117.524136 269 2356ft 0kts
13-Apr-18 16:20 47.621784 -117.524136 269 2356ft 0kts
13-Apr-18 16:21 47.621784 -117.524136 269 2356ft 0kts
13-Apr-18 16:27 47.621784 -117.524136 269 2356ft 0kts
13-Apr-18 16:28 47.621784 -117.524136 269 2356ft 0kts
13-Apr-18 16:29 47.621784 -117.524136 269 2356ft 0kts
13-Apr-18 16:30 47.621784 -117.524136 269 2356ft 0kts
13-Apr-18 16:31 47.621784 -117.524136 269 2356ft 0kts
13-Apr-18 16:32 47.621784 -117.524136 269 2356ft 0kts
13-Apr-18 16:33 47.621784 -117.524136 269 2356ft 0kts
13-Apr-18 16:34 47.621784 -117.524136 269 2356ft 0kts
13-Apr-18 16:35 47.621784 -117.524136 269 2356ft 0kts
13-Apr-18 16:36 47.621784 -117.524136 269 2356ft 0kts
13-Apr-18 16:37 47.623498 -117.525249 357 2352ft 16kts
13-Apr-18 16:38 47.626911 -117.521238 42 2342ft 19kts
13-Apr-18 16:39 47.630423 -117.517347 314 2325ft 0kts
13-Apr-18 16:40 47.630424 -117.517348 314 2325ft 0kts
13-Apr-18 16:41 47.630424 -117.517348 314 2325ft 0kts
13-Apr-18 16:42 47.630424 -117.517348 314 2325ft 0kts
13-Apr-18 16:43 47.631092 -117.518612 258 2325ft 6kts
13-Apr-18 16:44 47.613026 -117.547418 220 3929ft 132kts
13-Apr-18 16:45 47.576072 -117.579259 218 5710ft 183kts
13-Apr-18 16:46 47.546180 -117.648591 251 6259ft 218kts
13-Apr-18 16:47 47.530797 -117.732391 244 7323ft 208kts
13-Apr-18 16:48 47.504787 -117.807324 246 8440ft 201kts
13-Apr-18 16:49 47.479968 -117.880642 247 9488ft 199kts
13-Apr-18 16:50 47.455227 -117.953846 247 10504ft 204kts
13-Apr-18 16:51 47.429083 -118.031099 246 11637ft 214kts
13-Apr-18 16:52 47.401512 -118.112241 246 12094ft 234kts
13-Apr-18 16:53 47.371990 -118.198792 246 12090ft 242kts
13-Apr-18 16:54 47.341679 -118.287855 246 12089ft 242kts
13-Apr-18 16:55 47.311400 -118.376071 246 12089ft 241kts
13-Apr-18 16:56 47.283032 -118.458379 246 12080ft 242kts
13-Apr-18 16:57 47.252547 -118.546555 246 12060ft 241kts
13-Apr-18 16:58 47.223436 -118.630219 245 13086ft 221kts
13-Apr-18 16:59 47.197036 -118.705979 245 14147ft 217kts
13-Apr-18 17:00 47.169760 -118.784058 244 15220ft 213kts
13-Apr-18 17:01 47.142912 -118.860670 244 16243ft 209kts
13-Apr-18 17:02 47.115865 -118.938202 245 17296ft 218kts
13-Apr-18 17:03 47.087934 -119.016759 244 18369ft 217kts
13-Apr-18 17:04 47.060524 -119.094840 245 19402ft 215kts
13-Apr-18 17:05 47.033084 -119.172420 246 20392ft 213kts
13-Apr-18 17:06 47.005915 -119.248827 246 21331ft 211kts
13-Apr-18 17:07 46.979098 -119.323985 246 22230ft 207kts
13-Apr-18 17:08 46.952581 -119.398165 247 23072ft 205kts
13-Apr-18 17:09 46.925409 -119.474115 247 23604ft 218kts
13-Apr-18 17:10 46.897166 -119.552584 247 24130ft 220kts
13-Apr-18 17:11 46.869379 -119.629615 247 24658ft 218kts
13-Apr-18 17:12 46.842040 -119.705164 247 25189ft 216kts
13-Apr-18 17:13 46.814054 -119.782329 247 25739ft 212kts
13-Apr-18 17:14 46.786759 -119.857318 248 26232ft 209kts
13-Apr-18 17:15 46.758962 -119.933783 248 26246ft 218kts
13-Apr-18 17:16 46.730134 -120.012682 248 26246ft 222kts
13-Apr-18 17:17 46.701088 -120.091816 248 26243ft 223kts
13-Apr-18 17:18 46.671959 -120.170969 248 26246ft 223kts
13-Apr-18 17:19 46.642811 -120.249985 249 26243ft 223kts
13-Apr-18 17:20 46.613582 -120.328965 248 26243ft 221kts
13-Apr-18 17:21 46.584685 -120.406872 248 26246ft 221kts
13-Apr-18 17:22 46.578317 -120.489332 280 26259ft 214kts
13-Apr-18 17:23 46.592972 -120.573388 281 26259ft 214kts
13-Apr-18 17:24 46.607436 -120.656454 281 26265ft 214kts
13-Apr-18 17:25 46.620188 -120.730215 280 26271ft 216kts
13-Apr-18 17:26 46.634850 -120.815356 280 26267ft 218kts
13-Apr-18 17:27 46.649496 -120.900855 280 26266ft 219kts
13-Apr-18 17:28 46.664115 -120.986558 280 26266ft 218kts
13-Apr-18 17:29 46.678626 -121.072130 280 26264ft 218kts
13-Apr-18 17:30 46.693069 -121.157723 280 26264ft 218kts
13-Apr-18 17:31 46.707169 -121.242365 280 25875ft 214kts
13-Apr-18 17:32 46.721194 -121.326425 280 24920ft 213kts
13-Apr-18 17:33 46.735113 -121.410163 279 23981ft 215kts
13-Apr-18 17:34 46.749251 -121.495537 279 23082ft 218kts
13-Apr-18 17:35 46.763514 -121.582148 279 21822ft 224kts
13-Apr-18 17:36 46.777844 -121.669468 278 20549ft 227kts
13-Apr-18 17:37 46.792176 -121.757199 278 19357ft 228kts
13-Apr-18 17:38 46.806606 -121.845981 278 18188ft 228kts
13-Apr-18 17:39 46.821154 -121.936105 278 17035ft 230kts
13-Apr-18 17:40 46.835772 -122.027079 278 16061ft 226kts
13-Apr-18 17:41 46.849964 -122.116053 278 15103ft 231kts
13-Apr-18 17:42 46.864684 -122.209150 277 13622ft 239kts
13-Apr-18 17:43 46.879600 -122.304078 277 12179ft 242kts
13-Apr-18 17:44 46.894672 -122.399286 277 10776ft 243kts
13-Apr-18 17:45 46.909245 -122.493541 277 9399ft 230kts
13-Apr-18 17:46 46.922555 -122.580480 276 7888ft 209kts
13-Apr-18 17:47 46.934998 -122.661700 275 6489ft 208kts
13-Apr-18 17:48 46.973013 -122.722250 330 4929ft 235kts
13-Apr-18 17:49 47.032877 -122.761502 330 3443ft 237kts
13-Apr-18 17:50 47.090028 -122.801107 330 2454ft 209kts
13-Apr-18 17:51 47.127083 -122.826167 329 2449ft 186kts
13-Apr-18 17:52 47.175542 -122.817759 19 2435ft 187kts
13-Apr-18 17:53 47.213873 -122.778332 351 2435ft 180kts
13-Apr-18 17:54 47.215228 -122.821041 179 2436ft 164kts
13-Apr-18 17:55 47.175124 -122.780562 148 2435ft 179kts
13-Apr-18 17:56 47.140668 -122.809649 229 2450ft 157kts
13-Apr-18 17:57 47.110659 -122.852318 220 2452ft 151kts
13-Apr-18 17:58 47.073718 -122.873412 195 2321ft 145kts
13-Apr-18 17:59 47.036100 -122.884296 190 1351ft 129kts
13-Apr-18 18:00 47.005986 -122.894165 192 832ft 109kts
13-Apr-18 18:01 46.982965 -122.900753 192 366ft 97kts
13-Apr-18 18:02 46.967425 -122.905181 186 201ft 14kts
13-Apr-18 18:03 46.967067 -122.901488 89 200ft 12kts
13-Apr-18 18:04 46.967044 -122.893478 90 202ft 19kts
13-Apr-18 18:05 46.971195 -122.895061 321 204ft 16kts
13-Apr-18 18:06 46.972063 -122.895016 205 202ft 0kts

Navigation Log

Ident Type
Flight plan parsing failed, navigation log unavailable